Time;durP1;ratioP1;P1;durP2;ratioP2;P2;SDS_P1;SDS_P2;PMS_P1;PMS_P2;Temp;Humidity;BMP_temperature;BMP_pressure;BME280_temperature;BME280_humidity;BME280_pressure;Samples;Min_cycle;Max_cycle;Signal;HPM_P1;HPM_P2
2021/07/26 00:01:44;;;;;;;2.57;2.37;;;22.00;97.70;;;;;;4993807;28;20537;-86
2021/07/26 00:04:11;;;;;;;2.40;2.20;;;22.00;97.40;;;;;;5000696;28;20447;-84
2021/07/26 00:06:38;;;;;;;4.50;2.37;;;22.00;97.40;;;;;;4989316;28;20454;-85
2021/07/26 00:09:05;;;;;;;3.47;2.03;;;22.10;96.90;;;;;;4990677;28;20530;-89
2021/07/26 00:11:32;;;;;;;2.77;2.50;;;22.20;96.80;;;;;;4998936;28;20542;-89
2021/07/26 00:13:59;;;;;;;2.60;2.40;;;21.90;97.00;;;;;;4996491;28;20458;-85
2021/07/26 00:16:26;;;;;;;2.30;2.10;;;21.90;97.10;;;;;;4986501;28;20459;-87
2021/07/26 00:18:53;;;;;;;2.47;2.27;;;22.00;97.10;;;;;;4986582;28;20903;-87
2021/07/26 00:21:20;;;;;;;2.67;2.20;;;22.00;97.00;;;;;;5006987;28;20482;-85
2021/07/26 00:23:47;;;;;;;3.47;2.50;;;22.00;97.00;;;;;;4990794;28;20530;-86
2021/07/26 00:26:17;;;;;;;2.27;2.07;;;22.00;96.90;;;;;;5009820;28;20454;-86
2021/07/26 00:28:44;;;;;;;2.50;2.30;;;22.00;97.00;;;;;;5011645;28;20478;-86
2021/07/26 00:31:10;;;;;;;2.37;2.17;;;22.00;97.00;;;;;;5015803;28;20530;-87
2021/07/26 00:34:18;;;;;;;3.00;2.43;;;21.90;97.60;;;;;;5003264;28;20476;-88
2021/07/26 00:36:57;;;;;;;3.00;2.40;;;21.80;98.30;;;;;;4999267;28;20470;-85
2021/07/26 00:39:29;;;;;;;2.70;2.10;;;21.70;98.50;;;;;;4999331;28;20461;-86
2021/07/26 00:41:57;;;;;;;2.63;2.43;;;21.60;98.90;;;;;;4999772;28;20439;-85
2021/07/26 00:44:26;;;;;;;4.47;3.00;;;21.60;99.10;;;;;;5008974;28;20447;-87
2021/07/26 00:46:54;;;;;;;2.57;2.37;;;21.70;99.10;;;;;;5004374;28;20465;-88
2021/07/26 00:49:21;;;;;;;3.20;2.60;;;21.70;98.90;;;;;;5010509;28;20455;-90
2021/07/26 00:51:51;;;;;;;3.03;2.80;;;21.60;99.30;;;;;;5018976;28;20506;-88
2021/07/26 00:54:21;;;;;;;2.80;2.60;;;21.50;99.80;;;;;;5018719;28;20582;-90
2021/07/26 00:56:52;;;;;;;2.50;2.40;;;21.50;99.90;;;;;;5009498;28;20434;-89
2021/07/26 00:59:19;;;;;;;2.50;2.27;;;21.40;99.90;;;;;;5018789;28;20546;-88
2021/07/26 01:01:47;;;;;;;3.40;2.70;;;21.50;99.90;;;;;;5013078;28;20464;-91
2021/07/26 01:04:14;;;;;;;3.83;3.07;;;21.60;99.90;;;;;;5023686;28;20463;-89
2021/07/26 01:06:41;;;;;;;3.63;3.30;;;21.60;99.90;;;;;;5002931;28;20439;-90
2021/07/26 01:09:07;;;;;;;4.10;3.70;;;21.60;99.90;;;;;;4999958;28;20518;-87
2021/07/26 01:11:34;;;;;;;3.80;3.10;;;21.50;99.90;;;;;;5005677;28;20609;-88
2021/07/26 01:14:04;;;;;;;4.53;4.10;;;21.30;99.90;;;;;;5018115;28;20451;-89
2021/07/26 01:16:31;;;;;;;3.83;3.53;;;21.20;99.90;;;;;;5013101;28;20474;-89
2021/07/26 01:19:02;;;;;;;3.77;3.47;;;21.20;99.90;;;;;;5018479;28;20513;-87
2021/07/26 01:21:30;;;;;;;4.07;3.67;;;21.10;99.90;;;;;;4996939;28;20459;-88
2021/07/26 01:24:00;;;;;;;3.47;3.17;;;20.90;99.90;;;;;;4995831;28;20534;-86
2021/07/26 01:26:27;;;;;;;5.70;3.60;;;21.10;99.90;;;;;;5004816;28;20462;-89
2021/07/26 01:29:16;;;;;;;4.60;3.47;;;21.20;99.90;;;;;;4993250;28;20561;-88
2021/07/26 01:31:43;;;;;;;3.80;3.50;;;21.00;99.90;;;;;;5004811;28;20427;-89
2021/07/26 01:34:10;;;;;;;4.50;3.80;;;21.00;99.90;;;;;;5007795;28;20506;-87
2021/07/26 01:36:42;;;;;;;4.20;3.67;;;21.20;99.90;;;;;;5006211;28;20482;-88
2021/07/26 01:39:09;;;;;;;4.17;3.77;;;21.10;99.90;;;;;;4998185;28;20537;-89
2021/07/26 01:41:36;;;;;;;5.77;3.30;;;21.20;99.90;;;;;;5005516;28;20443;-90
2021/07/26 01:44:10;;;;;;;3.90;3.60;;;21.20;99.90;;;;;;5002094;28;20517;-91
2021/07/26 01:47:01;;;;;;;4.60;3.43;;;21.30;99.90;;;;;;5002197;28;20482;-90
2021/07/26 01:49:44;;;;;;;3.43;3.13;;;21.10;99.90;;;;;;5012278;28;20463;-90
2021/07/26 01:52:12;;;;;;;3.47;2.90;;;21.20;99.90;;;;;;4995705;28;20442;-90
2021/07/26 01:54:40;;;;;;;3.73;2.93;;;21.10;99.90;;;;;;5003264;28;20478;-90
2021/07/26 01:57:07;;;;;;;4.77;3.33;;;21.20;99.90;;;;;;5016519;28;20431;-89
2021/07/26 01:59:35;;;;;;;3.80;3.33;;;21.10;99.90;;;;;;5005982;28;20477;-90
2021/07/26 02:02:03;;;;;;;3.77;3.37;;;21.20;99.90;;;;;;5004649;28;20530;-90
2021/07/26 02:04:29;;;;;;;3.23;2.97;;;21.30;99.90;;;;;;5007749;28;20451;-89
2021/07/26 02:06:56;;;;;;;4.50;3.70;;;21.30;99.90;;;;;;5009723;28;20441;-91
2021/07/26 02:09:23;;;;;;;3.50;3.30;;;21.10;99.90;;;;;;5005268;28;20478;-90
2021/07/26 02:11:50;;;;;;;3.23;2.93;;;21.10;99.90;;;;;;4993991;28;20447;-86
2021/07/26 02:14:18;;;;;;;3.60;2.90;;;21.10;99.90;;;;;;4993648;28;20447;-85
2021/07/26 02:16:51;;;;;;;3.73;3.00;;;21.00;99.90;;;;;;5004683;28;20478;-87
2021/07/26 02:19:18;;;;;;;3.40;3.00;;;20.80;99.90;;;;;;5004336;28;20473;-86
2021/07/26 02:21:45;;;;;;;3.97;3.30;;;21.00;99.90;;;;;;4995146;28;20459;-89
2021/07/26 02:24:12;;;;;;;4.77;3.63;;;21.30;99.90;;;;;;4992138;28;20460;-86
2021/07/26 02:26:39;;;;;;;3.90;3.60;;;21.30;99.90;;;;;;5002245;28;20542;-88
2021/07/26 02:29:06;;;;;;;3.60;3.30;;;21.30;99.90;;;;;;4993379;28;20547;-86
2021/07/26 02:31:33;;;;;;;4.27;3.83;;;21.20;99.90;;;;;;4993518;28;20471;-86
2021/07/26 02:34:00;;;;;;;3.87;3.27;;;21.10;99.90;;;;;;5000097;28;20515;-86
2021/07/26 02:36:27;;;;;;;3.70;3.40;;;21.00;99.90;;;;;;5001531;28;20447;-86
2021/07/26 02:38:53;;;;;;;5.67;3.70;;;21.00;99.90;;;;;;4997910;28;20482;-89
2021/07/26 02:41:20;;;;;;;4.17;3.70;;;21.00;99.90;;;;;;4994623;28;20456;-86
2021/07/26 02:43:47;;;;;;;4.17;3.77;;;20.90;99.90;;;;;;4979739;28;20454;-87
2021/07/26 02:46:14;;;;;;;3.40;3.10;;;20.80;99.90;;;;;;4987331;28;20463;-85
2021/07/26 02:48:41;;;;;;;4.23;3.60;;;20.80;99.90;;;;;;4983004;28;20486;-86
2021/07/26 02:51:08;;;;;;;3.90;3.60;;;20.70;99.90;;;;;;4977416;28;20457;-86
2021/07/26 02:53:35;;;;;;;3.60;3.30;;;20.70;99.90;;;;;;4980020;28;20554;-87
2021/07/26 02:56:07;;;;;;;3.70;3.40;;;20.70;99.90;;;;;;4987666;28;20495;-86
2021/07/26 02:58:34;;;;;;;4.13;3.73;;;20.60;99.90;;;;;;4985584;28;20570;-87
2021/07/26 03:01:01;;;;;;;3.97;3.30;;;20.60;99.90;;;;;;5003151;28;20439;-86
2021/07/26 03:03:29;;;;;;;5.13;4.07;;;20.60;99.90;;;;;;4986602;28;20447;-86
2021/07/26 03:05:56;;;;;;;4.23;3.83;;;20.60;99.90;;;;;;4991565;28;20470;-86
2021/07/26 03:08:23;;;;;;;3.60;3.30;;;20.60;99.90;;;;;;5003434;28;20482;-88
2021/07/26 03:10:50;;;;;;;6.50;3.73;;;20.60;99.90;;;;;;4989633;28;20479;-88
2021/07/26 03:13:19;;;;;;;3.50;3.20;;;20.40;99.90;;;;;;4989663;28;20675;-86
2021/07/26 03:15:46;;;;;;;3.43;3.13;;;20.50;99.90;;;;;;5002153;28;20529;-87
2021/07/26 03:18:13;;;;;;;5.63;3.73;;;20.70;99.90;;;;;;4988047;28;20479;-87
2021/07/26 03:20:48;;;;;;;4.83;3.23;;;20.70;99.90;;;;;;4991467;28;20458;-87
2021/07/26 03:23:16;;;;;;;3.87;3.53;;;20.50;99.90;;;;;;4994764;28;20463;-88
2021/07/26 03:25:43;;;;;;;4.97;4.13;;;20.50;99.90;;;;;;5010148;28;20486;-87
2021/07/26 03:28:10;;;;;;;3.50;3.20;;;20.50;99.90;;;;;;5002547;28;21027;-88
2021/07/26 03:30:37;;;;;;;4.60;3.63;;;20.40;99.90;;;;;;5013235;28;20715;-88
2021/07/26 03:33:05;;;;;;;3.63;3.33;;;20.40;99.90;;;;;;4996157;28;20451;-85
2021/07/26 03:35:33;;;;;;;4.10;3.47;;;20.40;99.90;;;;;;4999262;28;20463;-86
2021/07/26 03:38:01;;;;;;;4.57;3.80;;;20.50;99.90;;;;;;5005826;28;20479;-86
2021/07/26 03:40:37;;;;;;;4.50;4.10;;;20.50;99.90;;;;;;5010890;28;20451;-90
2021/07/26 03:43:04;;;;;;;3.83;3.53;;;20.60;99.90;;;;;;5004596;28;20478;-88
2021/07/26 03:45:31;;;;;;;3.43;3.13;;;20.60;99.90;;;;;;5019669;28;20509;-89
2021/07/26 03:50:35;;;;;;;5.33;4.03;;;20.40;99.90;;;;;;5238230;23;20497;-90
2021/07/26 03:53:02;;;;;;;3.70;3.40;;;20.30;99.90;;;;;;5019815;28;20470;-90
2021/07/26 03:55:32;;;;;;;4.30;3.90;;;20.30;99.90;;;;;;5020105;28;20514;-90
2021/07/26 03:58:03;;;;;;;3.73;3.43;;;20.20;99.90;;;;;;5017981;28;20541;-90
2021/07/26 04:00:34;;;;;;;3.87;3.47;;;20.20;99.90;;;;;;5013974;28;20439;-91
2021/07/26 04:08:33;;;;;;;3.47;3.13;;;20.00;99.90;;;;;;4999991;28;20559;-90
2021/07/26 04:11:14;;;;;;;4.53;3.50;;;20.20;99.90;;;;;;5014262;28;20455;-86
2021/07/26 04:13:44;;;;;;;3.67;3.37;;;20.30;99.90;;;;;;5010511;28;20478;-87
2021/07/26 04:16:11;;;;;;;3.30;3.00;;;20.40;99.90;;;;;;5006273;28;20490;-89
2021/07/26 04:18:38;;;;;;;4.20;3.77;;;20.40;99.90;;;;;;5008304;28;20514;-88
2021/07/26 04:21:09;;;;;;;4.00;3.67;;;20.40;99.90;;;;;;4999761;28;20466;-89
2021/07/26 04:23:37;;;;;;;4.00;3.60;;;20.30;99.90;;;;;;4995922;28;20452;-87
2021/07/26 04:26:06;;;;;;;6.17;3.43;;;20.20;99.90;;;;;;5004768;28;20450;-86
2021/07/26 04:28:33;;;;;;;5.10;3.60;;;20.00;99.90;;;;;;5005046;28;20531;-86
2021/07/26 04:31:00;;;;;;;3.67;3.40;;;20.00;99.90;;;;;;4979275;28;20442;-87
2021/07/26 04:33:27;;;;;;;4.23;3.57;;;19.90;99.90;;;;;;5001294;28;20455;-87
2021/07/26 04:35:55;;;;;;;3.80;3.50;;;19.90;99.90;;;;;;4993390;28;20455;-87
2021/07/26 04:38:21;;;;;;;4.13;3.07;;;20.10;99.90;;;;;;4998057;28;20538;-86
2021/07/26 04:40:48;;;;;;;4.47;4.07;;;20.10;99.90;;;;;;5003702;28;20451;-87
2021/07/26 04:43:17;;;;;;;4.23;3.83;;;20.10;99.90;;;;;;4999965;28;20515;-88
2021/07/26 04:45:50;;;;;;;4.63;3.40;;;20.20;99.90;;;;;;4998278;28;20453;-87
2021/07/26 04:48:18;;;;;;;5.13;3.50;;;20.20;99.90;;;;;;5004100;28;20526;-87
2021/07/26 04:50:45;;;;;;;3.93;3.63;;;20.30;99.90;;;;;;5002201;28;20475;-87
2021/07/26 04:53:12;;;;;;;3.83;3.40;;;20.30;99.90;;;;;;5006877;28;20530;-85
2021/07/26 04:55:42;;;;;;;4.57;3.80;;;20.30;99.90;;;;;;5004379;28;20538;-88
2021/07/26 04:58:12;;;;;;;3.40;3.10;;;20.30;99.90;;;;;;5001288;28;20471;-87
2021/07/26 05:00:50;;;;;;;5.30;3.63;;;20.40;99.90;;;;;;4997574;28;20483;-86
2021/07/26 05:03:20;;;;;;;4.13;3.23;;;20.50;99.90;;;;;;4994669;28;20494;-86
2021/07/26 05:05:46;;;;;;;4.00;3.60;;;20.50;99.90;;;;;;4999038;28;20511;-87
2021/07/26 05:08:17;;;;;;;4.80;3.33;;;20.50;99.90;;;;;;4997303;28;20554;-88
2021/07/26 05:10:50;;;;;;;5.10;3.43;;;20.50;99.90;;;;;;5001597;28;20461;-87
2021/07/26 05:13:17;;;;;;;3.80;3.50;;;20.50;99.90;;;;;;4991742;28;20468;-87
2021/07/26 05:15:52;;;;;;;4.67;3.37;;;20.50;99.90;;;;;;4976847;28;20455;-88
2021/07/26 05:18:23;;;;;;;4.30;3.90;;;20.40;99.90;;;;;;4994090;28;20487;-88
2021/07/26 05:20:53;;;;;;;5.20;3.37;;;20.40;99.90;;;;;;4997585;28;20450;-88
2021/07/26 05:23:23;;;;;;;4.70;3.30;;;20.40;99.90;;;;;;5000977;28;20463;-88
2021/07/26 05:25:52;;;;;;;3.77;3.47;;;20.40;99.90;;;;;;5000599;28;20444;-87
2021/07/26 05:28:19;;;;;;;5.00;3.53;;;20.40;99.90;;;;;;5001875;28;20486;-87
2021/07/26 05:30:46;;;;;;;4.20;3.80;;;20.40;99.90;;;;;;4996519;28;20965;-88
2021/07/26 05:33:16;;;;;;;4.00;3.50;;;20.40;99.90;;;;;;4994126;28;20475;-88
2021/07/26 05:35:43;;;;;;;6.03;3.60;;;20.40;99.90;;;;;;4996262;28;20542;-88
2021/07/26 05:38:10;;;;;;;4.27;3.87;;;20.50;99.90;;;;;;5002188;28;20503;-88
2021/07/26 05:40:37;;;;;;;4.20;3.33;;;20.50;99.90;;;;;;5000663;28;20486;-87
2021/07/26 05:43:04;;;;;;;4.90;3.43;;;20.60;99.90;;;;;;5003280;28;20448;-88
2021/07/26 05:45:31;;;;;;;3.90;3.50;;;20.70;99.90;;;;;;5002512;28;20497;-87
2021/07/26 05:48:00;;;;;;;4.93;3.70;;;20.80;99.90;;;;;;4991996;28;20477;-88
2021/07/26 05:50:31;;;;;;;3.47;3.27;;;20.70;99.90;;;;;;5007903;28;20455;-88
2021/07/26 05:53:04;;;;;;;4.33;3.70;;;20.90;99.90;;;;;;5002877;28;20462;-88
2021/07/26 05:55:32;;;;;;;6.00;4.70;;;20.90;99.90;;;;;;5000546;28;20527;-87
2021/07/26 05:58:01;;;;;;;7.67;4.90;;;20.90;99.90;;;;;;5002621;28;20551;-86
2021/07/26 06:00:42;;;;;;;6.93;4.83;;;21.10;99.90;;;;;;5021049;28;20487;-90
2021/07/26 06:03:11;;;;;;;5.43;4.70;;;21.20;99.90;;;;;;4997484;28;22466;-87
2021/07/26 06:05:38;;;;;;;6.33;4.30;;;21.60;99.90;;;;;;4993561;28;20487;-87
2021/07/26 06:08:06;;;;;;;6.07;4.10;;;21.30;99.90;;;;;;5003537;28;20522;-90
2021/07/26 06:10:33;;;;;;;5.17;3.60;;;21.20;99.90;;;;;;5006745;28;20507;-87
2021/07/26 06:13:00;;;;;;;3.63;3.33;;;21.50;99.90;;;;;;5001170;28;20439;-88
2021/07/26 06:15:32;;;;;;;5.53;3.67;;;21.80;99.90;;;;;;4999741;28;20447;-87
2021/07/26 06:17:59;;;;;;;5.97;3.90;;;21.90;99.90;;;;;;4992904;28;20550;-86
2021/07/26 06:20:26;;;;;;;3.77;3.40;;;22.00;99.90;;;;;;4997484;28;20472;-87
2021/07/26 06:22:55;;;;;;;3.67;3.10;;;21.90;99.90;;;;;;5002105;28;20443;-87
2021/07/26 06:25:25;;;;;;;3.57;3.27;;;21.90;99.90;;;;;;4993973;28;20526;-88
2021/07/26 06:27:54;;;;;;;3.90;3.10;;;22.00;99.90;;;;;;4996577;28;20555;-88
2021/07/26 06:30:25;;;;;;;3.37;3.07;;;22.10;99.90;;;;;;4997759;28;20903;-90
2021/07/26 06:32:56;;;;;;;3.93;2.83;;;22.00;99.90;;;;;;4989929;28;20482;-86
2021/07/26 06:35:27;;;;;;;4.23;3.23;;;22.10;99.90;;;;;;4993587;28;20487;-90
2021/07/26 06:37:54;;;;;;;3.67;3.37;;;22.10;99.90;;;;;;4996411;28;20472;-86
2021/07/26 06:40:24;;;;;;;3.47;3.17;;;22.00;99.90;;;;;;4993045;28;20476;-86
2021/07/26 06:42:51;;;;;;;4.27;3.87;;;21.90;99.90;;;;;;4999654;28;20484;-87
2021/07/26 06:45:18;;;;;;;6.63;3.60;;;22.10;99.90;;;;;;5001591;28;20538;-88
2021/07/26 06:47:51;;;;;;;3.83;3.53;;;22.40;99.90;;;;;;4995568;28;20472;-89
2021/07/26 06:50:21;;;;;;;4.27;2.83;;;22.20;99.90;;;;;;4999033;28;20465;-89
2021/07/26 06:52:48;;;;;;;3.47;3.17;;;22.30;99.80;;;;;;4999147;28;20470;-88
2021/07/26 06:55:15;;;;;;;3.83;3.43;;;22.50;99.30;;;;;;5002199;28;20455;-89
2021/07/26 06:57:42;;;;;;;5.30;3.63;;;22.40;99.30;;;;;;4997505;28;21051;-88
2021/07/26 07:00:18;;;;;;;5.70;3.70;;;22.80;99.30;;;;;;4985857;28;20541;-87
2021/07/26 07:02:48;;;;;;;3.20;2.90;;;22.80;98.50;;;;;;4993929;28;20455;-90
2021/07/26 07:05:18;;;;;;;3.20;2.90;;;22.50;98.70;;;;;;4997635;28;20459;-90
2021/07/26 07:07:50;;;;;;;4.70;3.23;;;22.90;98.10;;;;;;4997222;28;21128;-89
2021/07/26 07:10:18;;;;;;;4.07;3.50;;;22.90;97.40;;;;;;5008907;28;20451;-86
2021/07/26 07:12:45;;;;;;;3.30;3.00;;;22.70;97.70;;;;;;4994684;28;20878;-87
2021/07/26 07:15:19;;;;;;;3.90;3.60;;;22.70;97.80;;;;;;4995136;28;20456;-88
2021/07/26 07:17:47;;;;;;;4.13;2.97;;;22.60;97.90;;;;;;4994467;28;20482;-87
2021/07/26 07:20:15;;;;;;;3.60;3.10;;;22.30;98.60;;;;;;4997871;28;20491;-87
2021/07/26 07:22:42;;;;;;;5.10;2.97;;;22.20;99.30;;;;;;4994135;28;20451;-88
2021/07/26 07:25:11;;;;;;;3.70;3.00;;;22.50;99.10;;;;;;4991422;28;20478;-87
2021/07/26 07:27:41;;;;;;;3.80;3.40;;;22.50;98.60;;;;;;5000922;28;21030;-86
2021/07/26 07:30:13;;;;;;;4.10;3.70;;;23.00;98.10;;;;;;4999913;28;20931;-85
2021/07/26 07:32:40;;;;;;;4.00;3.57;;;23.20;97.20;;;;;;4998140;28;20494;-89
2021/07/26 07:35:10;;;;;;;4.30;3.07;;;23.30;97.40;;;;;;4993221;28;21253;-90
2021/07/26 07:37:42;;;;;;;3.67;2.90;;;23.50;97.00;;;;;;4994618;28;20478;-89
2021/07/26 07:40:11;;;;;;;4.13;3.17;;;23.60;96.50;;;;;;4996050;28;20474;-86
2021/07/26 07:42:44;;;;;;;4.73;3.50;;;23.50;96.50;;;;;;4998263;28;20455;-87
2021/07/26 07:45:11;;;;;;;3.50;3.20;;;23.50;96.40;;;;;;5000961;28;20452;-86
2021/07/26 07:47:40;;;;;;;3.60;3.30;;;23.50;96.40;;;;;;4994544;28;20474;-86
2021/07/26 07:50:08;;;;;;;4.47;2.97;;;23.60;96.60;;;;;;5000472;28;20471;-86
2021/07/26 07:52:35;;;;;;;6.50;3.20;;;24.00;95.70;;;;;;4984863;28;20519;-86
2021/07/26 07:55:03;;;;;;;7.90;3.60;;;24.20;95.20;;;;;;5000684;28;20451;-84
2021/07/26 07:57:32;;;;;;;7.43;3.80;;;23.90;95.00;;;;;;5008333;28;20484;-91
2021/07/26 07:59:59;;;;;;;3.90;3.50;;;24.00;95.20;;;;;;5008685;28;20479;-90
2021/07/26 08:02:35;;;;;;;3.87;3.57;;;24.00;95.10;;;;;;5011676;28;20451;-88
2021/07/26 08:05:02;;;;;;;3.63;3.33;;;24.30;94.80;;;;;;5014498;28;21196;-90
2021/07/26 08:07:31;;;;;;;4.07;3.03;;;24.90;93.50;;;;;;5017575;28;20560;-87
2021/07/26 08:10:04;;;;;;;5.73;3.67;;;24.50;94.30;;;;;;5002568;28;20452;-86
2021/07/26 08:12:34;;;;;;;3.70;2.80;;;24.50;94.10;;;;;;5003561;28;20444;-85
2021/07/26 08:15:11;;;;;;;3.70;3.40;;;24.40;93.90;;;;;;5007521;28;20531;-90
2021/07/26 08:17:41;;;;;;;2.87;2.67;;;24.40;93.80;;;;;;5012544;28;20517;-86
2021/07/26 08:20:09;;;;;;;3.30;3.00;;;26.00;91.60;;;;;;5002657;28;20494;-87
2021/07/26 08:22:39;;;;;;;12.33;4.03;;;26.40;89.80;;;;;;4999079;28;20440;-86
2021/07/26 08:25:11;;;;;;;4.53;3.40;;;26.00;90.30;;;;;;5000668;28;21086;-88
2021/07/26 08:27:58;;;;;;;3.63;3.20;;;25.80;90.70;;;;;;4995837;28;20983;-88
2021/07/26 08:30:31;;;;;;;3.50;3.20;;;26.00;91.00;;;;;;4998521;28;20498;-88
2021/07/26 08:33:01;;;;;;;10.47;3.53;;;27.00;87.20;;;;;;4999172;28;20501;-89
2021/07/26 08:35:31;;;;;;;5.03;3.03;;;26.90;87.10;;;;;;5001727;28;20459;-88
2021/07/26 08:37:59;;;;;;;3.53;3.23;;;26.60;87.60;;;;;;4998792;28;20503;-89
2021/07/26 08:40:28;;;;;;;7.30;3.17;;;27.10;86.10;;;;;;4999029;28;20503;-90
2021/07/26 08:43:04;;;;;;;3.47;3.00;;;26.90;84.50;;;;;;4995260;28;20542;-88
2021/07/26 08:45:32;;;;;;;4.17;2.87;;;26.80;87.40;;;;;;5001050;28;20454;-87
2021/07/26 08:48:06;;;;;;;2.80;2.37;;;28.10;84.20;;;;;;5003694;28;20463;-88
2021/07/26 08:50:42;;;;;;;5.20;2.97;;;29.80;75.60;;;;;;5004641;28;20543;-87
2021/07/26 08:53:23;;;;;;;2.80;2.30;;;29.90;71.70;;;;;;5010090;28;20443;-88
2021/07/26 08:55:54;;;;;;;2.60;2.40;;;29.80;68.00;;;;;;5018430;28;20450;-88
2021/07/26 08:58:21;;;;;;;2.30;2.10;;;28.80;69.90;;;;;;5008765;28;20498;-90
2021/07/26 09:00:48;;;;;;;3.93;2.50;;;27.50;73.50;;;;;;5014989;28;20539;-89
2021/07/26 09:03:15;;;;;;;1.80;1.70;;;27.50;76.50;;;;;;5016088;28;20445;-90
2021/07/26 09:05:44;;;;;;;2.90;2.20;;;28.30;73.00;;;;;;5012154;28;20441;-90
2021/07/26 09:08:12;;;;;;;2.37;1.93;;;28.60;68.30;;;;;;5008423;28;20468;-85
2021/07/26 09:10:45;;;;;;;2.43;1.80;;;27.70;71.20;;;;;;5003265;28;20469;-85
2021/07/26 09:13:33;;;;;;;2.20;2.00;;;27.30;72.50;;;;;;5013318;28;20456;-87
2021/07/26 09:16:13;;;;;;;2.27;2.00;;;26.80;74.80;;;;;;5001864;28;20458;-89
2021/07/26 09:18:41;;;;;;;2.00;1.90;;;26.70;74.60;;;;;;5000825;28;20534;-86
2021/07/26 09:21:13;;;;;;;2.10;1.90;;;27.40;73.40;;;;;;5001845;28;20489;-87
2021/07/26 09:24:04;;;;;;;2.17;1.97;;;27.40;71.80;;;;;;4996404;28;20452;-87
2021/07/26 09:26:37;;;;;;;2.80;2.50;;;27.10;73.10;;;;;;4998707;28;20439;-86
2021/07/26 09:29:30;;;;;;;2.43;2.17;;;26.50;74.20;;;;;;5001388;28;20489;-86
2021/07/26 09:32:02;;;;;;;2.87;2.10;;;25.90;77.10;;;;;;5001879;28;20465;-87
2021/07/26 09:34:30;;;;;;;3.03;1.97;;;25.80;77.60;;;;;;4993572;28;20459;-86
2021/07/26 09:36:57;;;;;;;3.00;2.30;;;25.50;79.20;;;;;;5001894;28;20444;-90
2021/07/26 09:39:27;;;;;;;2.40;2.20;;;25.20;80.50;;;;;;5001225;28;20478;-88
2021/07/26 09:41:58;;;;;;;2.30;2.10;;;24.90;82.10;;;;;;5002182;28;20454;-89
2021/07/26 09:44:27;;;;;;;2.33;2.20;;;24.80;83.20;;;;;;5001776;28;20459;-89
2021/07/26 09:47:19;;;;;;;2.87;2.17;;;24.70;83.90;;;;;;4991655;28;20490;-89
2021/07/26 09:49:46;;;;;;;2.30;2.10;;;24.70;84.20;;;;;;5000813;28;20469;-87
2021/07/26 09:52:16;;;;;;;3.10;2.43;;;24.90;84.50;;;;;;5001191;28;20457;-88
2021/07/26 09:54:52;;;;;;;2.60;2.40;;;25.10;83.40;;;;;;4996998;28;20439;-88
2021/07/26 09:57:29;;;;;;;2.43;2.23;;;25.00;83.90;;;;;;5000571;28;20459;-90
2021/07/26 10:00:01;;;;;;;3.00;2.20;;;25.00;83.80;;;;;;4999639;28;20483;-88
2021/07/26 10:02:34;;;;;;;2.83;2.60;;;25.00;84.40;;;;;;5000096;28;20431;-90
2021/07/26 10:05:05;;;;;;;3.57;2.30;;;25.00;85.00;;;;;;4991603;28;21024;-87
2021/07/26 10:07:35;;;;;;;4.10;2.03;;;25.20;84.60;;;;;;4990156;28;20502;-86
2021/07/26 10:10:02;;;;;;;2.60;2.40;;;25.10;84.60;;;;;;5000197;28;20937;-86
2021/07/26 10:12:32;;;;;;;2.33;2.10;;;25.70;81.90;;;;;;5001024;28;20980;-87
2021/07/26 10:14:59;;;;;;;2.33;1.73;;;26.20;80.70;;;;;;5012853;28;20442;-90
2021/07/26 10:17:26;;;;;;;2.43;2.23;;;26.50;78.50;;;;;;5006920;28;20467;-90
2021/07/26 10:20:01;;;;;;;2.53;2.07;;;26.50;78.30;;;;;;5013681;28;20559;-90
2021/07/26 10:22:29;;;;;;;1.77;1.67;;;26.30;78.00;;;;;;5002086;28;20447;-89
2021/07/26 10:25:05;;;;;;;2.80;2.60;;;26.40;77.80;;;;;;5000910;28;20820;-88
2021/07/26 10:27:39;;;;;;;1.93;1.83;;;26.40;77.20;;;;;;4993182;28;20510;-88
2021/07/26 10:30:32;;;;;;;3.63;2.37;;;26.00;78.20;;;;;;5000897;28;21010;-87
2021/07/26 10:33:03;;;;;;;2.30;2.10;;;25.80;79.30;;;;;;4989169;28;20451;-85
2021/07/26 10:35:46;;;;;;;2.00;1.90;;;25.90;79.50;;;;;;4995163;28;20451;-90
2021/07/26 10:38:13;;;;;;;2.00;1.80;;;26.50;77.50;;;;;;5016939;28;20557;-86
2021/07/26 10:40:43;;;;;;;2.37;2.17;;;26.70;75.20;;;;;;5001252;28;20486;-87
2021/07/26 10:43:16;;;;;;;2.40;2.20;;;26.60;75.40;;;;;;5001428;28;20592;-87
2021/07/26 10:46:00;;;;;;;2.40;2.20;;;26.20;76.50;;;;;;4989439;28;20459;-88
2021/07/26 10:48:37;;;;;;;2.43;2.10;;;25.90;77.60;;;;;;5000901;28;20474;-88
2021/07/26 10:51:40;;;;;;;2.30;2.03;;;26.10;78.00;;;;;;4991396;28;20465;-86
2021/07/26 10:54:08;;;;;;;2.73;2.20;;;26.30;77.30;;;;;;4996947;28;20550;-88
2021/07/26 10:57:01;;;;;;;2.43;2.23;;;26.10;78.00;;;;;;4995276;28;20493;-87
2021/07/26 10:59:30;;;;;;;2.63;2.20;;;26.60;77.80;;;;;;4946062;28;20498;-88
2021/07/26 11:02:04;;;;;;;2.23;2.13;;;28.30;72.70;;;;;;4885377;29;20458;-88
2021/07/26 11:04:32;;;;;;;1.70;1.60;;;27.90;70.10;;;;;;4802152;29;20529;-90
2021/07/26 11:07:08;;;;;;;4.90;2.00;;;27.40;71.40;;;;;;4792351;29;20470;-86
2021/07/26 11:09:45;;;;;;;1.73;1.63;;;27.20;72.30;;;;;;4800874;29;20488;-87
2021/07/26 11:12:50;;;;;;;2.00;1.90;;;27.50;71.90;;;;;;4777529;30;20481;-87
2021/07/26 11:15:19;;;;;;;2.67;2.47;;;27.40;72.00;;;;;;4794040;29;20461;-89
2021/07/26 11:18:19;;;;;;;2.40;1.90;;;28.20;69.80;;;;;;4777628;30;21001;-86
2021/07/26 11:21:16;;;;;;;2.47;2.20;;;27.90;69.70;;;;;;4791292;30;20494;-87
2021/07/26 11:23:49;;;;;;;2.33;2.13;;;28.20;69.60;;;;;;4782914;30;20529;-87
2021/07/26 11:26:28;;;;;;;2.17;1.93;;;28.30;68.90;;;;;;4782106;30;20461;-86
2021/07/26 11:29:03;;;;;;;2.20;2.00;;;29.10;65.00;;;;;;4780902;30;20497;-87
2021/07/26 11:31:37;;;;;;;2.60;1.90;;;28.60;65.30;;;;;;4801405;29;20485;-87
2021/07/26 11:34:11;;;;;;;2.50;2.30;;;28.10;67.70;;;;;;4783566;30;20546;-87
2021/07/26 11:37:07;;;;;;;2.40;2.23;;;28.00;67.90;;;;;;4783773;30;20461;-89
2021/07/26 11:39:52;;;;;;;3.87;2.20;;;28.10;67.90;;;;;;4803947;29;20529;-89
2021/07/26 11:42:23;;;;;;;2.27;2.10;;;28.40;65.80;;;;;;4789778;30;20454;-91
2021/07/26 11:44:52;;;;;;;2.40;1.80;;;28.20;68.70;;;;;;4786415;30;20464;-89
2021/07/26 11:47:30;;;;;;;2.43;1.83;;;28.50;67.30;;;;;;4787989;30;20473;-89
2021/07/26 11:50:07;;;;;;;5.37;1.87;;;29.30;65.50;;;;;;4809954;29;20472;-88
2021/07/26 11:52:57;;;;;;;2.60;2.10;;;29.40;64.10;;;;;;4787294;29;20509;-91
2021/07/26 11:55:29;;;;;;;2.07;1.97;;;31.40;58.60;;;;;;4791949;29;20489;-90
2021/07/26 11:58:09;;;;;;;2.00;1.80;;;31.20;56.70;;;;;;4795622;29;20494;-92
2021/07/26 12:00:44;;;;;;;2.17;1.80;;;30.40;57.50;;;;;;4805610;29;20552;-91
2021/07/26 12:03:15;;;;;;;1.93;1.83;;;29.20;59.90;;;;;;4827959;29;20514;-91
2021/07/26 12:05:45;;;;;;;1.90;1.70;;;29.20;59.70;;;;;;4932010;29;20463;-88
2021/07/26 12:08:16;;;;;;;1.90;1.80;;;29.20;59.30;;;;;;4916993;29;20470;-88
2021/07/26 12:10:45;;;;;;;1.87;1.70;;;29.50;58.50;;;;;;4926725;29;20944;-88
2021/07/26 12:13:16;;;;;;;2.17;1.77;;;30.10;57.60;;;;;;4941579;29;20466;-87
2021/07/26 12:15:48;;;;;;;1.77;1.67;;;29.90;56.50;;;;;;4925533;29;20467;-89
2021/07/26 12:18:33;;;;;;;1.90;1.80;;;30.10;56.70;;;;;;4930115;29;21031;-86
2021/07/26 12:21:03;;;;;;;1.93;1.47;;;29.60;56.90;;;;;;4926470;29;20493;-86
2021/07/26 12:23:38;;;;;;;1.53;1.43;;;29.60;58.00;;;;;;4928178;29;20438;-87
2021/07/26 12:26:11;;;;;;;2.07;1.80;;;30.20;57.20;;;;;;4936957;29;20464;-88
2021/07/26 12:28:54;;;;;;;2.07;1.97;;;29.90;56.90;;;;;;4922815;29;20546;-88
2021/07/26 12:31:36;;;;;;;1.50;1.40;;;29.60;57.60;;;;;;4935375;29;20464;-86
2021/07/26 12:34:22;;;;;;;3.20;3.00;;;29.10;58.90;;;;;;4926731;29;20473;-88
2021/07/26 12:37:08;;;;;;;1.80;1.70;;;28.90;59.40;;;;;;4927162;29;20462;-87
2021/07/26 12:39:38;;;;;;;2.33;2.13;;;28.20;61.10;;;;;;4928467;29;20439;-87
2021/07/26 12:42:19;;;;;;;2.27;2.07;;;27.90;63.50;;;;;;4939842;28;21054;-86
2021/07/26 12:44:49;;;;;;;1.70;1.60;;;28.30;62.20;;;;;;4930138;29;20457;-89
2021/07/26 12:47:25;;;;;;;3.13;1.90;;;28.10;62.40;;;;;;4939841;28;20514;-89
2021/07/26 12:49:53;;;;;;;2.57;2.27;;;28.00;63.60;;;;;;4928103;29;20473;-88
2021/07/26 12:52:21;;;;;;;6.13;2.10;;;28.00;64.00;;;;;;4943481;29;21075;-88
2021/07/26 12:54:49;;;;;;;1.83;1.73;;;28.00;63.70;;;;;;4940156;29;22935;-88
2021/07/26 12:57:16;;;;;;;3.60;2.07;;;28.00;64.40;;;;;;4939214;29;20451;-87
2021/07/26 12:59:43;;;;;;;1.83;1.73;;;28.40;63.90;;;;;;4924894;29;20459;-88
2021/07/26 13:02:19;;;;;;;2.03;1.93;;;29.30;59.50;;;;;;4913529;29;20518;-89
2021/07/26 13:05:04;;;;;;;2.20;2.00;;;29.20;59.60;;;;;;4954949;29;20465;-88
2021/07/26 13:07:33;;;;;;;2.23;2.03;;;29.30;59.50;;;;;;4941413;29;20492;-88
2021/07/26 13:10:04;;;;;;;2.57;2.20;;;29.10;59.90;;;;;;4946437;29;20477;-89
2021/07/26 13:12:37;;;;;;;3.03;1.93;;;29.10;59.50;;;;;;4958719;28;20452;-90
2021/07/26 13:15:07;;;;;;;2.10;1.60;;;29.00;59.50;;;;;;4957505;28;20497;-91
2021/07/26 13:17:38;;;;;;;2.10;1.90;;;28.50;60.50;;;;;;4947092;29;21150;-89